FIK weather

Finke Airport
Finke, Northern Territory, Australia

Public forecast

Using degrees Celsius for public forecast. Weather courtesy of forecast.io.

METAR (pilot weather report)

Closest report is Alice Springs Airport, 113.6 nm (210.4 km) NNW. Retrieved 2019/03/24 05:00 UTC (18 minutes ago):

YBAS 240500Z AUTO 11011KT 050V130 9999 // SCT068 SCT105 35/16 Q1007

TAF (pilot weather forecast)

Forecast is more than 12 hours old.

Closest forecast is Alice Springs Airport, 113.6 nm (210.4 km) NNW. Retrieved 2019/03/23 00:00 UTC (1 day ago):

TAF YBAS 232323Z 2400/2424 05012KT 9999 SCT050 FM241800 12010KT 9999 SCT030 FM242200 14016G26KT 9999 SCT040 PROB30 TEMPO 2406/2412 VRB25G40KT 2000 TSRA SCT030 SCT070CB